Time;durP1;ratioP1;P1;durP2;ratioP2;P2;SDS_P1;SDS_P2;PMS_P1;PMS_P2;Temp;Humidity;BMP_temperature;BMP_pressure;BME280_temperature;BME280_humidity;BME280_pressure;Samples;Min_cycle;Max_cycle;Signal;HPM_P1;HPM_P2
2022/11/11 00:01:03;;;;;;;38.97;15.33;;;5.30;99.90;;;;;;5112799;28;20602;-78
2022/11/11 00:03:29;;;;;;;30.97;23.33;;;5.40;99.90;;;;;;5115261;28;20184;-78
2022/11/11 00:06:08;;;;;;;17.80;10.23;;;5.40;99.90;;;;;;5114906;28;20222;-77
2022/11/11 00:08:34;;;;;;;18.60;11.30;;;5.40;99.90;;;;;;5115494;28;20232;-78
2022/11/11 00:11:07;;;;;;;11.73;10.57;;;5.20;99.90;;;;;;5100327;28;20173;-78
2022/11/11 00:13:34;;;;;;;11.73;10.63;;;5.10;99.90;;;;;;5104941;28;20188;-77
2022/11/11 00:16:06;;;;;;;17.60;11.80;;;5.10;99.90;;;;;;5097417;28;20683;-78
2022/11/11 00:27:10;;;;;;;19.93;18.27;;;4.70;99.90;;;;;;5115687;28;20217;-79
2022/11/11 00:29:37;;;;;;;28.23;26.23;;;4.70;99.90;;;;;;5111783;28;20177;-78
2022/11/11 00:32:22;;;;;;;18.10;16.60;;;4.70;99.90;;;;;;5094103;28;20185;-78
2022/11/11 00:37:34;;;;;;;26.23;23.73;;;4.60;99.90;;;;;;5096961;28;20180;-78
2022/11/11 00:40:00;;;;;;;24.73;23.00;;;4.60;99.90;;;;;;5113867;28;20183;-77
2022/11/11 00:42:26;;;;;;;19.27;17.80;;;4.50;99.90;;;;;;5129102;28;20191;-77
2022/11/11 00:44:52;;;;;;;16.40;15.10;;;4.50;99.90;;;;;;5125965;28;20208;-77
2022/11/11 00:52:49;;;;;;;11.77;9.67;;;4.50;99.90;;;;;;5096141;28;20180;-78
2022/11/11 00:55:15;;;;;;;10.97;9.33;;;4.50;99.90;;;;;;5092938;28;20341;-78
2022/11/11 00:57:40;;;;;;;10.70;9.60;;;4.50;99.90;;;;;;5092680;28;20581;-77
2022/11/11 01:00:07;;;;;;;11.10;9.93;;;4.50;99.90;;;;;;5099188;28;20183;-77
2022/11/11 01:02:33;;;;;;;10.93;9.80;;;4.40;99.90;;;;;;5104143;28;20211;-78
2022/11/11 01:04:58;;;;;;;17.07;10.53;;;4.40;99.90;;;;;;5092383;28;20242;-78
2022/11/11 01:07:24;;;;;;;14.53;9.77;;;4.30;99.90;;;;;;5093474;28;20184;-76
2022/11/11 01:09:50;;;;;;;18.87;11.30;;;4.20;99.90;;;;;;5092808;28;20176;-77
2022/11/11 01:12:16;;;;;;;18.10;15.33;;;4.20;99.90;;;;;;5093104;28;20717;-77
2022/11/11 01:14:42;;;;;;;23.23;16.17;;;4.10;99.90;;;;;;5093081;28;20199;-77
2022/11/11 01:17:08;;;;;;;16.53;14.00;;;4.10;99.90;;;;;;5093555;28;20237;-77
2022/11/11 01:19:34;;;;;;;12.20;11.10;;;4.10;99.90;;;;;;5094510;28;20547;-79
2022/11/11 01:22:00;;;;;;;12.67;11.47;;;4.10;99.90;;;;;;5115666;28;20184;-79
2022/11/11 01:24:26;;;;;;;13.20;10.30;;;4.10;99.90;;;;;;5121740;28;20184;-76
2022/11/11 01:26:52;;;;;;;11.70;10.70;;;4.10;99.90;;;;;;5124742;28;20206;-77
2022/11/11 01:29:18;;;;;;;16.40;10.47;;;4.10;99.90;;;;;;5116034;28;20178;-77
2022/11/11 01:31:44;;;;;;;12.60;10.40;;;4.20;99.90;;;;;;5098661;28;20180;-78
2022/11/11 01:34:10;;;;;;;10.67;9.77;;;4.20;99.90;;;;;;5093702;28;20569;-78
2022/11/11 01:36:36;;;;;;;12.00;9.47;;;4.30;99.90;;;;;;5091937;28;20219;-78
2022/11/11 01:39:02;;;;;;;12.33;8.80;;;4.20;99.90;;;;;;5102048;28;20184;-77
2022/11/11 01:41:31;;;;;;;21.43;10.03;;;4.30;99.90;;;;;;5103203;28;20241;-78
2022/11/11 01:44:10;;;;;;;19.80;9.80;;;4.40;99.90;;;;;;5095733;28;20258;-78
2022/11/11 01:46:56;;;;;;;12.43;10.13;;;4.40;99.90;;;;;;5096065;28;20764;-78
2022/11/11 01:49:31;;;;;;;11.73;10.57;;;4.40;99.90;;;;;;5105107;28;20179;-77
2022/11/11 01:52:21;;;;;;;13.27;10.63;;;4.50;99.90;;;;;;5094937;28;20176;-77
2022/11/11 01:55:09;;;;;;;25.60;9.63;;;4.50;99.90;;;;;;5113042;28;20203;-77
2022/11/11 01:57:45;;;;;;;14.23;9.87;;;4.50;99.90;;;;;;5116437;28;20220;-77
2022/11/11 02:00:13;;;;;;;14.97;8.20;;;4.50;99.90;;;;;;5110543;28;20246;-78
2022/11/11 02:02:44;;;;;;;18.40;8.80;;;4.50;99.90;;;;;;5092138;28;20185;-78
2022/11/11 02:08:00;;;;;;;27.60;8.60;;;4.40;99.90;;;;;;5093004;28;20262;-78
2022/11/11 02:10:28;;;;;;;15.03;9.47;;;4.40;99.90;;;;;;5094954;28;20270;-78
2022/11/11 02:15:39;;;;;;;12.33;11.23;;;4.30;99.90;;;;;;5096095;28;20219;-77
2022/11/11 02:18:06;;;;;;;13.33;11.50;;;4.30;99.90;;;;;;5101149;28;20180;-78
2022/11/11 02:20:43;;;;;;;12.03;11.13;;;4.20;99.90;;;;;;5106198;28;20206;-78
2022/11/11 02:23:29;;;;;;;13.60;9.77;;;4.10;99.90;;;;;;5115393;28;20183;-77
2022/11/11 02:25:55;;;;;;;8.77;7.83;;;4.10;99.90;;;;;;5115273;28;20691;-77
2022/11/11 02:28:26;;;;;;;8.97;8.30;;;4.00;99.90;;;;;;5124875;28;20233;-76
2022/11/11 02:30:51;;;;;;;9.03;8.17;;;4.10;99.90;;;;;;5104542;28;20534;-77
2022/11/11 02:33:17;;;;;;;15.57;9.33;;;4.00;99.90;;;;;;5099690;28;20267;-78
2022/11/11 02:35:57;;;;;;;21.43;9.60;;;4.10;99.90;;;;;;5095446;28;20223;-77
2022/11/11 02:38:24;;;;;;;18.60;10.83;;;4.00;99.90;;;;;;5093640;28;20631;-78
2022/11/11 02:43:35;;;;;;;18.70;9.70;;;3.90;99.90;;;;;;5115541;28;20183;-77
2022/11/11 02:46:03;;;;;;;14.03;9.60;;;4.00;99.90;;;;;;5114367;28;20211;-77
2022/11/11 02:48:29;;;;;;;18.43;9.60;;;4.00;99.90;;;;;;5115366;28;20235;-77
2022/11/11 02:50:56;;;;;;;25.83;9.73;;;4.00;99.90;;;;;;5094666;28;20185;-77
2022/11/11 02:53:22;;;;;;;22.03;9.87;;;4.00;99.90;;;;;;5093455;28;20191;-78
2022/11/11 02:55:48;;;;;;;17.93;9.50;;;4.10;99.90;;;;;;5094388;28;20200;-79
2022/11/11 02:58:14;;;;;;;17.40;9.83;;;4.10;99.90;;;;;;5093203;28;20199;-76
2022/11/11 03:00:41;;;;;;;22.03;9.57;;;4.10;99.90;;;;;;5112586;28;20191;-79
2022/11/11 03:03:10;;;;;;;15.30;8.50;;;4.10;99.90;;;;;;5121540;27;20184;-77
2022/11/11 03:05:36;;;;;;;19.83;9.13;;;4.00;99.90;;;;;;5116942;28;20210;-77
2022/11/11 03:08:02;;;;;;;12.27;10.00;;;4.10;99.90;;;;;;5115542;28;20195;-77
2022/11/11 03:10:29;;;;;;;15.83;9.23;;;4.10;99.90;;;;;;5117666;28;20289;-76
2022/11/11 03:12:55;;;;;;;12.53;9.67;;;4.10;99.90;;;;;;5115523;28;20187;-77
2022/11/11 03:15:22;;;;;;;11.50;10.50;;;4.00;99.90;;;;;;5114483;28;20295;-76
2022/11/11 03:17:47;;;;;;;24.77;11.40;;;3.90;99.90;;;;;;5115515;28;20549;-77
2022/11/11 03:23:11;;;;;;;13.53;10.47;;;4.00;99.90;;;;;;5094612;28;20184;-77
2022/11/11 03:25:46;;;;;;;29.00;9.77;;;4.00;99.90;;;;;;5094420;28;20309;-76
2022/11/11 03:28:14;;;;;;;35.00;10.63;;;4.00;99.90;;;;;;5093219;28;20603;-77
2022/11/11 03:30:42;;;;;;;62.87;10.97;;;3.90;99.90;;;;;;5108502;28;20182;-77
2022/11/11 03:33:08;;;;;;;71.77;10.50;;;4.00;99.90;;;;;;5120909;28;20180;-76
2022/11/11 03:35:35;;;;;;;54.53;12.53;;;4.00;99.90;;;;;;5120749;28;20248;-77
2022/11/11 03:40:47;;;;;;;46.67;8.60;;;3.90;99.90;;;;;;5099951;28;20218;-77
2022/11/11 03:43:14;;;;;;;54.67;14.37;;;3.80;99.90;;;;;;5094686;28;20180;-77
2022/11/11 03:45:41;;;;;;;58.03;14.90;;;3.80;99.90;;;;;;5123192;27;20686;-77
2022/11/11 03:48:07;;;;;;;44.40;14.00;;;3.80;99.90;;;;;;5132563;27;20177;-76
2022/11/11 03:50:33;;;;;;;46.27;13.73;;;3.90;99.90;;;;;;5108909;27;20203;-77
2022/11/11 03:52:59;;;;;;;57.40;11.77;;;3.90;99.90;;;;;;5107575;28;20541;-77
2022/11/11 03:55:25;;;;;;;28.90;12.10;;;3.90;99.90;;;;;;5112816;28;20200;-76
2022/11/11 03:57:51;;;;;;;26.80;12.03;;;3.80;99.90;;;;;;5112096;28;20180;-77
2022/11/11 04:00:23;;;;;;;25.07;12.60;;;3.80;99.90;;;;;;5110684;28;20193;-77
2022/11/11 04:11:18;;;;;;;27.87;10.00;;;3.80;99.90;;;;;;5123261;27;20298;-76
2022/11/11 04:16:32;;;;;;;41.53;11.50;;;3.60;99.90;;;;;;5118067;28;20207;-77
2022/11/11 04:21:42;;;;;;;15.47;11.67;;;3.50;99.90;;;;;;5111716;28;20188;-77
2022/11/11 04:26:56;;;;;;;19.93;8.93;;;3.40;99.90;;;;;;5124191;28;20212;-76
2022/11/11 04:29:28;;;;;;;16.37;8.60;;;3.40;99.90;;;;;;5121344;28;20637;-78
2022/11/11 04:35:01;;;;;;;11.50;10.67;;;3.30;99.90;;;;;;5092424;28;20632;-77
2022/11/11 04:37:31;;;;;;;13.47;12.47;;;3.20;99.90;;;;;;5091785;28;20288;-76
2022/11/11 04:42:41;;;;;;;13.37;12.17;;;3.20;99.90;;;;;;5110972;28;20231;-77
2022/11/11 04:45:29;;;;;;;13.53;12.23;;;3.10;99.90;;;;;;5111647;28;20202;-77
2022/11/11 04:47:58;;;;;;;15.17;13.67;;;3.10;99.90;;;;;;5112763;28;20204;-77
2022/11/11 04:50:26;;;;;;;17.07;15.50;;;3.10;99.90;;;;;;5112837;28;20179;-76
2022/11/11 04:52:52;;;;;;;18.43;16.53;;;3.10;99.90;;;;;;5112197;28;20187;-77
2022/11/11 04:58:02;;;;;;;13.50;12.50;;;3.10;99.90;;;;;;5112207;28;20241;-76
2022/11/11 05:00:28;;;;;;;13.67;12.83;;;3.10;99.90;;;;;;5111799;28;20183;-77
2022/11/11 05:08:55;;;;;;;11.00;10.30;;;3.10;99.90;;;;;;5111724;28;20176;-76
2022/11/11 05:11:23;;;;;;;10.77;9.87;;;3.00;99.90;;;;;;5111302;28;20212;-76
2022/11/11 05:22:15;;;;;;;12.33;11.33;;;3.10;99.90;;;;;;5092630;27;20802;-70
2022/11/11 05:27:25;;;;;;;11.37;10.40;;;3.10;99.90;;;;;;5107255;28;20679;-73
2022/11/11 05:29:51;;;;;;;12.57;11.67;;;3.10;99.90;;;;;;5109757;28;20713;-73
2022/11/11 05:32:19;;;;;;;12.70;11.70;;;3.10;99.90;;;;;;5108870;28;20270;-72
2022/11/11 05:34:45;;;;;;;16.30;12.07;;;3.10;99.90;;;;;;5110618;28;20216;-72
2022/11/11 05:37:11;;;;;;;13.80;12.70;;;3.10;99.90;;;;;;5109334;22;20706;-77
2022/11/11 05:39:37;;;;;;;17.93;14.57;;;3.10;99.90;;;;;;5069756;28;20654;-78
2022/11/11 05:42:03;;;;;;;18.77;13.83;;;3.00;99.90;;;;;;5075572;28;20184;-76
2022/11/11 05:44:29;;;;;;;26.93;14.90;;;3.10;99.90;;;;;;5070784;28;20706;-77
2022/11/11 05:46:55;;;;;;;28.60;17.57;;;3.00;99.90;;;;;;5070915;28;20228;-75
2022/11/11 05:49:21;;;;;;;22.50;20.57;;;3.00;99.90;;;;;;5069025;28;20212;-76
2022/11/11 05:51:46;;;;;;;31.97;18.00;;;3.10;99.90;;;;;;5069351;28;20215;-76
2022/11/11 05:54:14;;;;;;;35.83;26.23;;;3.00;99.90;;;;;;5070431;28;20285;-76
2022/11/11 05:56:39;;;;;;;28.50;25.77;;;3.00;99.90;;;;;;5070304;28;20204;-77
2022/11/11 05:59:06;;;;;;;18.90;16.77;;;3.10;99.90;;;;;;5070266;28;20185;-75
2022/11/11 06:01:33;;;;;;;27.50;15.97;;;3.20;99.90;;;;;;5070781;28;20193;-77
2022/11/11 06:03:58;;;;;;;15.97;13.80;;;3.10;99.90;;;;;;5069973;28;20176;-76
2022/11/11 06:06:25;;;;;;;16.63;13.27;;;3.10;99.90;;;;;;5069225;28;20703;-77
2022/11/11 06:08:50;;;;;;;15.80;10.47;;;3.10;99.90;;;;;;5070048;28;20188;-77
2022/11/11 06:11:16;;;;;;;16.00;12.47;;;3.00;99.90;;;;;;5069926;28;20192;-77
2022/11/11 06:13:42;;;;;;;14.53;13.50;;;3.00;99.90;;;;;;5071925;28;20223;-77
2022/11/11 06:16:08;;;;;;;14.03;12.70;;;3.00;99.90;;;;;;5070751;28;20192;-76
2022/11/11 06:18:34;;;;;;;17.40;11.70;;;2.90;99.90;;;;;;5070035;28;20243;-76
2022/11/11 06:21:00;;;;;;;14.47;13.20;;;3.00;99.90;;;;;;5069176;28;20657;-77
2022/11/11 06:23:27;;;;;;;12.20;11.07;;;3.00;99.90;;;;;;5069303;28;20188;-76
2022/11/11 06:26:12;;;;;;;19.00;13.10;;;3.00;99.90;;;;;;5069665;28;20211;-77
2022/11/11 06:28:43;;;;;;;17.43;13.30;;;2.90;99.90;;;;;;5070392;28;20564;-75
2022/11/11 06:31:11;;;;;;;16.80;15.10;;;3.00;99.90;;;;;;5084504;28;20177;-76
2022/11/11 06:33:38;;;;;;;17.43;16.23;;;2.90;99.90;;;;;;5079368;28;20263;-76
2022/11/11 06:36:05;;;;;;;18.17;16.63;;;2.90;99.90;;;;;;5070940;28;20223;-76
2022/11/11 06:38:31;;;;;;;26.07;24.17;;;2.90;99.90;;;;;;5069987;28;20224;-76
2022/11/11 06:40:57;;;;;;;28.70;26.53;;;2.90;99.90;;;;;;5068254;28;20243;-76
2022/11/11 06:43:24;;;;;;;25.57;23.57;;;2.90;99.90;;;;;;5068758;28;20188;-76
2022/11/11 06:45:51;;;;;;;26.47;24.30;;;2.90;99.90;;;;;;5068810;28;20248;-76
2022/11/11 06:48:17;;;;;;;24.37;22.47;;;3.00;99.90;;;;;;5068276;28;20201;-76
2022/11/11 06:50:43;;;;;;;27.70;25.57;;;3.00;99.90;;;;;;5070153;28;20181;-76
2022/11/11 06:53:12;;;;;;;30.27;28.27;;;3.10;99.90;;;;;;5069125;28;20185;-76
2022/11/11 06:55:38;;;;;;;31.73;29.50;;;3.10;99.90;;;;;;5068118;28;20661;-77
2022/11/11 06:58:12;;;;;;;31.40;29.13;;;3.20;99.90;;;;;;5069533;28;20205;-76
2022/11/11 07:00:38;;;;;;;33.40;31.30;;;3.20;99.90;;;;;;5074380;28;20207;-76
2022/11/11 07:03:05;;;;;;;31.87;29.63;;;3.30;99.90;;;;;;5070657;28;20234;-76
2022/11/11 07:05:32;;;;;;;24.33;22.23;;;3.40;99.90;;;;;;5071934;28;20214;-79
2022/11/11 07:08:09;;;;;;;16.27;14.67;;;3.50;99.90;;;;;;5071843;28;20199;-76
2022/11/11 07:10:37;;;;;;;21.27;19.30;;;3.60;99.90;;;;;;5076286;28;20173;-77
2022/11/11 07:13:04;;;;;;;21.90;20.20;;;3.70;99.90;;;;;;5073722;28;20177;-77
2022/11/11 07:15:31;;;;;;;25.07;23.23;;;3.80;99.90;;;;;;5073582;28;20255;-76
2022/11/11 07:17:57;;;;;;;23.60;21.60;;;3.80;99.90;;;;;;5071803;28;20301;-76
2022/11/11 07:20:23;;;;;;;27.77;25.63;;;3.90;99.90;;;;;;5072293;28;20662;-76
2022/11/11 07:22:48;;;;;;;26.63;24.73;;;4.00;99.90;;;;;;5076054;28;20181;-77
2022/11/11 07:25:14;;;;;;;22.80;21.20;;;4.10;99.90;;;;;;5074458;28;20215;-75
2022/11/11 07:27:41;;;;;;;26.23;24.53;;;4.10;99.90;;;;;;5070249;28;20207;-78
2022/11/11 07:30:09;;;;;;;23.57;21.77;;;4.20;99.90;;;;;;5077161;28;20192;-78
2022/11/11 07:32:35;;;;;;;26.80;25.00;;;4.30;99.90;;;;;;5076219;28;20612;-77
2022/11/11 07:35:02;;;;;;;20.87;19.50;;;4.50;99.90;;;;;;5074074;28;20202;-77
2022/11/11 07:37:30;;;;;;;13.40;12.13;;;4.60;99.90;;;;;;5074314;28;20221;-77
2022/11/11 07:39:56;;;;;;;16.77;15.47;;;4.70;99.90;;;;;;5075307;28;20712;-78
2022/11/11 07:42:22;;;;;;;19.50;18.07;;;4.80;99.90;;;;;;5075807;28;20220;-77
2022/11/11 07:44:48;;;;;;;34.80;32.60;;;5.00;99.90;;;;;;5074248;28;20200;-78
2022/11/11 07:47:14;;;;;;;19.40;17.67;;;5.20;99.90;;;;;;5073287;28;20204;-75
2022/11/11 07:49:40;;;;;;;14.83;10.87;;;5.30;99.90;;;;;;5072656;28;20174;-76
2022/11/11 07:52:06;;;;;;;9.77;8.77;;;5.50;99.90;;;;;;5075227;28;20607;-77
2022/11/11 07:54:32;;;;;;;11.53;10.43;;;5.60;99.90;;;;;;5072197;28;20250;-76
2022/11/11 07:56:57;;;;;;;13.63;12.53;;;5.70;99.90;;;;;;5072536;28;20682;-77
2022/11/11 07:59:23;;;;;;;25.77;23.53;;;5.80;99.90;;;;;;5073111;28;20185;-75
2022/11/11 08:01:49;;;;;;;25.20;22.90;;;6.00;99.90;;;;;;5072747;28;20181;-76
2022/11/11 08:04:14;;;;;;;18.33;17.03;;;6.00;99.90;;;;;;5071314;28;20609;-76
2022/11/11 08:06:40;;;;;;;18.83;17.33;;;6.10;99.90;;;;;;5072683;28;20295;-76
2022/11/11 08:09:06;;;;;;;20.57;19.17;;;6.20;99.90;;;;;;5072612;28;20637;-76
2022/11/11 08:14:16;;;;;;;21.97;20.57;;;6.30;99.90;;;;;;5074602;28;20250;-77
2022/11/11 08:16:42;;;;;;;25.60;23.90;;;6.50;99.90;;;;;;5072906;28;20674;-76
2022/11/11 08:19:08;;;;;;;28.47;26.70;;;6.60;99.90;;;;;;5073813;28;20189;-77
2022/11/11 08:21:34;;;;;;;27.23;25.53;;;6.70;99.90;;;;;;5075048;28;20296;-77
2022/11/11 08:24:00;;;;;;;19.43;17.93;;;6.90;99.90;;;;;;5073684;28;20201;-77
2022/11/11 08:26:26;;;;;;;14.70;13.70;;;6.90;99.90;;;;;;5074469;28;20209;-77
2022/11/11 08:28:52;;;;;;;15.27;14.23;;;6.90;99.90;;;;;;5073689;28;20192;-77
2022/11/11 08:31:18;;;;;;;15.87;14.50;;;6.90;99.90;;;;;;5077295;28;20205;-76
2022/11/11 08:33:44;;;;;;;17.80;16.53;;;6.90;99.90;;;;;;5071645;28;20178;-77
2022/11/11 08:36:10;;;;;;;15.70;14.70;;;7.00;99.90;;;;;;5072920;28;20192;-77
2022/11/11 08:38:38;;;;;;;13.53;12.43;;;7.20;99.90;;;;;;5079243;28;20331;-76
2022/11/11 08:41:06;;;;;;;15.57;14.37;;;7.30;99.90;;;;;;5083096;28;20181;-77
2022/11/11 08:43:32;;;;;;;12.40;11.50;;;7.50;99.90;;;;;;5082861;28;20209;-78
2022/11/11 08:46:03;;;;;;;8.97;8.30;;;7.70;99.90;;;;;;5071432;28;20243;-78
2022/11/11 08:48:30;;;;;;;13.80;12.87;;;8.00;99.90;;;;;;5073395;28;20251;-78
2022/11/11 08:50:56;;;;;;;10.30;9.50;;;8.30;99.90;;;;;;5071163;28;20174;-76
2022/11/11 08:53:23;;;;;;;14.20;12.90;;;8.60;99.90;;;;;;5070876;28;20178;-77
2022/11/11 08:55:48;;;;;;;25.27;23.57;;;9.00;99.90;;;;;;5070829;28;20178;-76
2022/11/11 08:58:14;;;;;;;21.87;20.40;;;9.70;99.90;;;;;;5070116;28;20243;-76
2022/11/11 09:00:41;;;;;;;15.00;13.70;;;10.40;99.90;;;;;;5070396;28;20189;-77
2022/11/11 09:03:10;;;;;;;12.47;11.47;;;10.90;99.90;;;;;;5065910;28;20243;-76
2022/11/11 09:05:40;;;;;;;18.93;17.63;;;11.60;99.90;;;;;;5070913;28;20201;-77
2022/11/11 09:08:07;;;;;;;14.90;13.73;;;12.20;99.90;;;;;;5069691;28;20571;-74
2022/11/11 09:10:34;;;;;;;14.10;12.77;;;12.50;99.90;;;;;;5090277;28;20169;-78
2022/11/11 09:13:00;;;;;;;17.07;15.70;;;12.90;99.90;;;;;;5083034;28;20571;-77
2022/11/11 09:15:27;;;;;;;14.63;13.60;;;13.40;99.90;;;;;;5072024;28;20178;-76
2022/11/11 09:17:53;;;;;;;12.53;11.53;;;13.50;99.90;;;;;;5070309;28;20689;-76
2022/11/11 09:20:20;;;;;;;10.40;9.47;;;13.80;99.90;;;;;;5070855;28;20268;-76
2022/11/11 09:22:48;;;;;;;10.97;8.47;;;13.90;99.90;;;;;;5070910;28;20177;-77
2022/11/11 09:25:15;;;;;;;9.53;8.70;;;14.30;99.90;;;;;;5069408;28;20201;-76
2022/11/11 09:27:41;;;;;;;11.43;10.53;;;14.80;99.90;;;;;;5069899;28;20518;-75
2022/11/11 09:30:08;;;;;;;12.00;10.80;;;14.90;99.90;;;;;;5070882;28;20177;-76
2022/11/11 09:32:35;;;;;;;10.73;9.50;;;15.60;99.90;;;;;;5070267;28;20185;-77
2022/11/11 09:35:02;;;;;;;10.67;9.80;;;15.20;99.90;;;;;;5070129;28;20178;-77
2022/11/11 09:37:28;;;;;;;9.00;8.20;;;14.90;99.90;;;;;;5070240;28;20217;-76
2022/11/11 09:39:57;;;;;;;9.07;8.30;;;14.30;99.90;;;;;;5069037;28;20181;-77
2022/11/11 09:43:01;;;;;;;12.60;9.37;;;14.60;99.90;;;;;;5062548;28;20194;-77
2022/11/11 09:45:48;;;;;;;11.93;9.03;;;15.10;99.90;;;;;;5036824;28;20221;-75
2022/11/11 09:48:15;;;;;;;10.43;9.57;;;15.70;99.90;;;;;;5053679;28;20190;-77
2022/11/11 09:50:42;;;;;;;16.37;15.10;;;15.80;99.90;;;;;;5055389;28;20254;-77
2022/11/11 09:53:20;;;;;;;17.63;16.53;;;15.50;99.90;;;;;;5082603;28;20177;-76
2022/11/11 09:55:59;;;;;;;15.23;13.90;;;15.60;99.90;;;;;;5091227;28;20276;-77
2022/11/11 09:58:32;;;;;;;15.10;14.00;;;16.10;99.90;;;;;;5092025;28;20205;-77
2022/11/11 10:01:11;;;;;;;16.00;14.33;;;15.90;99.90;;;;;;5090243;28;20189;-78
2022/11/11 10:03:51;;;;;;;18.20;16.80;;;16.10;99.90;;;;;;5090943;28;20834;-77
2022/11/11 10:06:25;;;;;;;16.50;15.20;;;16.10;99.90;;;;;;5079329;28;20261;-77
2022/11/11 10:09:06;;;;;;;14.97;13.83;;;16.00;99.90;;;;;;5071146;28;20181;-76
2022/11/11 10:11:53;;;;;;;12.47;11.40;;;15.60;99.90;;;;;;5064848;28;20282;-77
2022/11/11 10:14:19;;;;;;;11.40;10.50;;;15.30;99.90;;;;;;5061243;28;20189;-77
2022/11/11 10:17:23;;;;;;;14.07;12.97;;;15.40;99.90;;;;;;5068697;28;20208;-75
2022/11/11 10:20:18;;;;;;;15.60;14.50;;;15.60;99.90;;;;;;5037107;28;20259;-77
2022/11/11 10:22:48;;;;;;;13.50;12.43;;;16.60;99.90;;;;;;5073419;28;20268;-77
2022/11/11 10:25:24;;;;;;;17.10;16.00;;;17.30;99.90;;;;;;5070245;28;20237;-77
2022/11/11 10:27:57;;;;;;;41.93;39.43;;;17.30;99.90;;;;;;5068395;28;20280;-78
2022/11/11 10:30:29;;;;;;;40.33;38.13;;;18.70;99.90;;;;;;5069229;28;20206;-77
2022/11/11 10:32:57;;;;;;;35.97;33.90;;;19.00;99.90;;;;;;5067244;28;20182;-76
2022/11/11 10:35:29;;;;;;;26.47;24.40;;;19.90;99.90;;;;;;5068967;28;20189;-76
2022/11/11 10:38:01;;;;;;;23.37;22.07;;;19.30;99.90;;;;;;5069617;28;20274;-76
2022/11/11 10:40:50;;;;;;;18.57;17.13;;;18.70;99.90;;;;;;5069352;28;20576;-75
2022/11/11 10:43:21;;;;;;;23.03;21.33;;;18.40;99.90;;;;;;5074291;28;20216;-74
2022/11/11 10:46:12;;;;;;;22.93;21.20;;;18.40;99.90;;;;;;5074180;28;20221;-75
2022/11/11 10:48:45;;;;;;;23.90;22.23;;;18.70;99.90;;;;;;5073060;28;20177;-75
2022/11/11 10:51:12;;;;;;;24.67;23.10;;;18.10;99.90;;;;;;5073103;28;20291;-75
2022/11/11 10:53:43;;;;;;;25.23;23.73;;;18.30;99.90;;;;;;5067916;28;20181;-77
2022/11/11 10:56:29;;;;;;;30.47;28.60;;;18.30;99.90;;;;;;5055626;28;20190;-75
2022/11/11 10:59:14;;;;;;;27.77;26.07;;;18.00;99.90;;;;;;5056381;28;20251;-76
2022/11/11 11:01:48;;;;;;;19.37;18.27;;;18.30;99.90;;;;;;5079928;28;20181;-77
2022/11/11 11:04:35;;;;;;;25.70;23.77;;;18.30;99.90;;;;;;5074984;28;20174;-76
2022/11/11 11:07:04;;;;;;;28.77;27.00;;;18.10;99.90;;;;;;5073011;28;20300;-75
2022/11/11 11:09:39;;;;;;;29.37;27.47;;;17.80;99.90;;;;;;5072768;28;20301;-76
2022/11/11 11:12:14;;;;;;;26.87;25.30;;;18.00;99.90;;;;;;5073613;28;20173;-77
2022/11/11 11:14:47;;;;;;;27.97;26.37;;;18.00;99.90;;;;;;5071955;28;20177;-76
2022/11/11 11:17:29;;;;;;;15.80;14.77;;;18.40;99.90;;;;;;5071256;28;20229;-76
2022/11/11 11:20:15;;;;;;;8.47;7.57;;;19.50;99.90;;;;;;5073064;28;20268;-76
2022/11/11 11:22:52;;;;;;;8.20;7.50;;;19.50;99.90;;;;;;5077851;28;20181;-74
2022/11/11 11:25:20;;;;;;;9.30;8.40;;;19.90;99.90;;;;;;5079949;28;20300;-75
2022/11/11 11:27:48;;;;;;;9.97;8.97;;;20.10;99.90;;;;;;5072829;28;20216;-75
2022/11/11 11:30:17;;;;;;;7.97;7.17;;;20.10;99.90;;;;;;5072404;28;20688;-74
2022/11/11 11:33:01;;;;;;;10.10;9.27;;;20.00;99.90;;;;;;5082789;28;20265;-75
2022/11/11 11:35:42;;;;;;;10.30;9.47;;;19.60;99.90;;;;;;5091971;28;20541;-76
2022/11/11 11:38:10;;;;;;;9.50;8.60;;;19.90;99.90;;;;;;5113500;22;20224;-73
2022/11/11 11:40:47;;;;;;;11.13;10.17;;;20.60;99.90;;;;;;5092686;28;20238;-73
2022/11/11 11:43:46;;;;;;;10.63;9.63;;;21.40;99.90;;;;;;5091385;28;20706;-73
2022/11/11 11:46:15;;;;;;;10.47;9.70;;;21.40;99.90;;;;;;5072094;28;20263;-71
2022/11/11 11:49:04;;;;;;;9.60;8.77;;;21.90;99.90;;;;;;5084152;28;20205;-70
2022/11/11 11:51:58;;;;;;;10.83;9.70;;;21.70;99.90;;;;;;5051863;28;20698;-71
2022/11/11 11:54:37;;;;;;;10.90;10.00;;;21.70;99.90;;;;;;5052227;28;20182;-74
2022/11/11 11:57:16;;;;;;;14.23;13.27;;;22.50;99.90;;;;;;5052090;28;20190;-71
2022/11/11 12:00:04;;;;;;;15.10;14.10;;;23.50;99.10;;;;;;5069396;28;20182;-72
2022/11/11 12:02:45;;;;;;;15.27;14.13;;;24.50;95.90;;;;;;5052344;28;20190;-71
2022/11/11 12:05:25;;;;;;;13.70;12.70;;;23.50;96.00;;;;;;5068080;28;20297;-73
2022/11/11 12:08:04;;;;;;;19.80;18.53;;;22.90;97.20;;;;;;5051398;28;20209;-72
2022/11/11 12:11:01;;;;;;;20.57;19.27;;;21.70;99.00;;;;;;5051754;28;20265;-71
2022/11/11 12:13:54;;;;;;;17.23;16.13;;;20.70;99.90;;;;;;5068998;28;20186;-71
2022/11/11 12:16:25;;;;;;;21.53;20.03;;;19.70;99.90;;;;;;5071961;28;20181;-75
2022/11/11 12:19:12;;;;;;;12.20;11.50;;;19.70;99.90;;;;;;5071157;28;20278;-74
2022/11/11 12:22:36;;;;;;;13.77;12.87;;;19.80;99.90;;;;;;5070644;28;20593;-74
2022/11/11 12:25:30;;;;;;;11.37;10.47;;;19.40;99.90;;;;;;5028875;28;20224;-71
2022/11/11 12:28:14;;;;;;;9.67;8.97;;;19.00;99.90;;;;;;5012148;28;20198;-69
2022/11/11 12:31:03;;;;;;;11.20;10.20;;;20.30;99.90;;;;;;5090632;28;20182;-71
2022/11/11 12:33:50;;;;;;;12.67;11.80;;;22.40;99.90;;;;;;5070779;28;20621;-70
2022/11/11 12:36:28;;;;;;;15.93;15.00;;;23.30;99.20;;;;;;5071212;28;20185;-70
2022/11/11 12:39:32;;;;;;;24.33;22.83;;;23.50;97.90;;;;;;5072387;28;20240;-70
2022/11/11 12:42:29;;;;;;;20.03;18.67;;;22.00;98.80;;;;;;5046973;28;20549;-71
2022/11/11 12:45:18;;;;;;;12.20;11.30;;;20.70;99.90;;;;;;5070830;28;20211;-70
2022/11/11 12:47:55;;;;;;;12.13;11.33;;;19.20;99.90;;;;;;5070949;28;20206;-73
2022/11/11 12:50:37;;;;;;;11.40;10.60;;;18.60;99.90;;;;;;5070308;28;20205;-70
2022/11/11 12:53:36;;;;;;;14.13;13.20;;;18.30;99.90;;;;;;5071103;28;20533;-70
2022/11/11 12:56:20;;;;;;;28.03;26.33;;;18.00;99.90;;;;;;5070334;28;20200;-70
2022/11/11 12:58:48;;;;;;;37.40;35.17;;;18.20;99.90;;;;;;5070775;28;20236;-70
2022/11/11 13:01:24;;;;;;;28.07;26.37;;;18.80;99.90;;;;;;5071231;28;20705;-70
2022/11/11 13:04:03;;;;;;;28.93;27.13;;;19.70;99.90;;;;;;5070564;28;20188;-70
2022/11/11 13:06:43;;;;;;;12.50;11.57;;;20.30;99.90;;;;;;5071132;28;20697;-70
2022/11/11 13:09:18;;;;;;;11.67;10.73;;;21.20;99.90;;;;;;5065779;28;20193;-74
2022/11/11 13:12:13;;;;;;;13.70;12.77;;;21.10;99.90;;;;;;5062852;28;20238;-72
2022/11/11 13:14:45;;;;;;;12.17;11.37;;;20.70;99.90;;;;;;5070637;28;20190;-72
2022/11/11 13:17:12;;;;;;;13.23;12.23;;;20.90;99.90;;;;;;5069936;28;20185;-73
2022/11/11 13:19:53;;;;;;;12.50;11.63;;;20.60;99.90;;;;;;5070731;28;20641;-72
2022/11/11 13:22:22;;;;;;;13.30;12.40;;;20.10;99.90;;;;;;5070371;28;20669;-73
2022/11/11 13:24:50;;;;;;;12.80;11.83;;;19.50;99.90;;;;;;5070400;28;20177;-73
2022/11/11 13:27:28;;;;;;;12.27;11.27;;;19.30;99.90;;;;;;5069902;28;20285;-73
2022/11/11 13:29:59;;;;;;;13.00;12.07;;;19.60;99.90;;;;;;5070468;28;20258;-72
2022/11/11 13:32:39;;;;;;;14.63;13.63;;;20.40;99.90;;;;;;5070491;28;20210;-72
2022/11/11 13:35:18;;;;;;;17.43;16.10;;;20.60;99.90;;;;;;5070188;28;20180;-71
2022/11/11 13:37:45;;;;;;;17.80;16.57;;;20.70;99.90;;;;;;5069527;28;20723;-72
2022/11/11 13:40:41;;;;;;;14.47;13.13;;;20.50;99.90;;;;;;5068961;28;20232;-71
2022/11/11 13:43:30;;;;;;;15.47;14.40;;;20.50;99.90;;;;;;5069112;28;20181;-72
2022/11/11 13:45:59;;;;;;;15.30;14.40;;;20.50;99.90;;;;;;5070309;28;20201;-73
2022/11/11 13:48:32;;;;;;;16.27;15.00;;;20.50;99.90;;;;;;5069624;28;20284;-71
2022/11/11 13:51:25;;;;;;;15.33;14.17;;;20.30;99.90;;;;;;5069256;28;20205;-71
2022/11/11 13:53:51;;;;;;;13.33;12.10;;;20.40;99.90;;;;;;5069179;28;20181;-72
2022/11/11 13:56:41;;;;;;;12.33;11.33;;;20.70;99.90;;;;;;5070057;28;20196;-73
2022/11/11 13:59:17;;;;;;;10.63;9.83;;;21.00;99.90;;;;;;5069568;28;20255;-72
2022/11/11 14:01:42;;;;;;;11.20;10.30;;;20.60;99.90;;;;;;5050272;28;20201;-72
2022/11/11 14:04:10;;;;;;;12.80;11.80;;;19.30;99.90;;;;;;5066749;28;20665;-72
2022/11/11 14:06:48;;;;;;;13.60;12.40;;;19.10;99.90;;;;;;5069854;28;20301;-72
2022/11/11 14:09:53;;;;;;;11.63;9.53;;;18.60;99.90;;;;;;5068641;28;20299;-72
2022/11/11 14:12:21;;;;;;;32.67;30.67;;;17.90;99.90;;;;;;5068829;28;20181;-71
2022/11/11 14:14:55;;;;;;;41.83;39.43;;;17.20;99.90;;;;;;5070293;28;20181;-72